sensor_id;sensor_type;location;lat;lon;timestamp;P1;durP1;ratioP1;P2;durP2;ratioP2
21743;SDS011;11034;48.556;9.342;2023-04-06T14:02:32;7.50;;;4.88;;
21743;SDS011;11034;48.556;9.342;2023-04-06T14:05:00;7.60;;;4.93;;
21743;SDS011;11034;48.556;9.342;2023-04-06T14:07:29;6.70;;;4.07;;
21743;SDS011;11034;48.556;9.342;2023-04-06T14:09:57;5.85;;;3.80;;
21743;SDS011;11034;48.556;9.342;2023-04-06T14:12:26;5.93;;;3.83;;
21743;SDS011;11034;48.556;9.342;2023-04-06T14:14:54;4.97;;;3.60;;
21743;SDS011;11034;48.556;9.342;2023-04-06T14:17:22;5.72;;;4.00;;
21743;SDS011;11034;48.556;9.342;2023-04-06T14:19:51;5.68;;;3.95;;
21743;SDS011;11034;48.556;9.342;2023-04-06T14:22:19;7.30;;;3.92;;
21743;SDS011;11034;48.556;9.342;2023-04-06T14:24:47;6.90;;;4.28;;
21743;SDS011;11034;48.556;9.342;2023-04-06T14:27:15;6.45;;;4.40;;
21743;SDS011;11034;48.556;9.342;2023-04-06T14:29:43;8.05;;;4.05;;
21743;SDS011;11034;48.556;9.342;2023-04-06T14:32:11;5.38;;;4.00;;
21743;SDS011;11034;48.556;9.342;2023-04-06T14:34:39;5.57;;;4.13;;
21743;SDS011;11034;48.556;9.342;2023-04-06T14:37:09;8.85;;;4.10;;
21743;SDS011;11034;48.556;9.342;2023-04-06T14:39:37;6.45;;;3.88;;
21743;SDS011;11034;48.556;9.342;2023-04-06T14:42:05;5.20;;;3.97;;
21743;SDS011;11034;48.556;9.342;2023-04-06T14:44:33;6.68;;;4.45;;
21743;SDS011;11034;48.556;9.342;2023-04-06T14:47:02;7.82;;;4.32;;
21743;SDS011;11034;48.556;9.342;2023-04-06T14:49:31;7.28;;;4.25;;
21743;SDS011;11034;48.556;9.342;2023-04-06T14:51:59;9.30;;;4.38;;
21743;SDS011;11034;48.556;9.342;2023-04-06T14:54:29;6.38;;;4.32;;
21743;SDS011;11034;48.556;9.342;2023-04-06T14:56:57;5.15;;;3.75;;
21743;SDS011;11034;48.556;9.342;2023-04-06T14:59:25;5.50;;;3.80;;
21743;SDS011;11034;48.556;9.342;2023-04-06T15:01:54;6.03;;;4.10;;
21743;SDS011;11034;48.556;9.342;2023-04-06T15:04:22;8.10;;;4.50;;
21743;SDS011;11034;48.556;9.342;2023-04-06T15:06:50;7.80;;;4.57;;
21743;SDS011;11034;48.556;9.342;2023-04-06T15:09:18;6.68;;;4.40;;
21743;SDS011;11034;48.556;9.342;2023-04-06T15:11:48;7.15;;;4.07;;
21743;SDS011;11034;48.556;9.342;2023-04-06T15:14:16;5.97;;;3.65;;
21743;SDS011;11034;48.556;9.342;2023-04-06T15:16:43;6.60;;;4.28;;
21743;SDS011;11034;48.556;9.342;2023-04-06T15:19:11;5.25;;;4.03;;
21743;SDS011;11034;48.556;9.342;2023-04-06T15:21:39;5.43;;;4.32;;
21743;SDS011;11034;48.556;9.342;2023-04-06T15:24:08;8.25;;;4.70;;
21743;SDS011;11034;48.556;9.342;2023-04-06T15:26:36;5.75;;;3.95;;
21743;SDS011;11034;48.556;9.342;2023-04-06T15:29:05;6.72;;;4.50;;
21743;SDS011;11034;48.556;9.342;2023-04-06T15:31:34;7.53;;;4.40;;
21743;SDS011;11034;48.556;9.342;2023-04-06T15:34:04;7.78;;;4.15;;
21743;SDS011;11034;48.556;9.342;2023-04-06T15:36:34;6.75;;;4.82;;
21743;SDS011;11034;48.556;9.342;2023-04-06T15:39:03;5.57;;;4.30;;
21743;SDS011;11034;48.556;9.342;2023-04-06T15:41:34;6.07;;;4.03;;
21743;SDS011;11034;48.556;9.342;2023-04-06T15:44:03;6.55;;;4.43;;
21743;SDS011;11034;48.556;9.342;2023-04-06T15:46:32;5.60;;;4.20;;
21743;SDS011;11034;48.556;9.342;2023-04-06T15:49:00;6.53;;;4.40;;
21743;SDS011;11034;48.556;9.342;2023-04-06T15:51:28;5.88;;;4.18;;
21743;SDS011;11034;48.556;9.342;2023-04-06T15:53:56;4.82;;;4.00;;
21743;SDS011;11034;48.556;9.342;2023-04-06T15:56:24;7.32;;;4.13;;
21743;SDS011;11034;48.556;9.342;2023-04-06T15:58:52;8.32;;;5.25;;
21743;SDS011;11034;48.556;9.342;2023-04-06T16:01:20;8.02;;;4.50;;
21743;SDS011;11034;48.556;9.342;2023-04-06T16:03:50;6.90;;;4.25;;
21743;SDS011;11034;48.556;9.342;2023-04-06T16:06:18;5.88;;;3.80;;
21743;SDS011;11034;48.556;9.342;2023-04-06T16:08:46;7.22;;;3.90;;
21743;SDS011;11034;48.556;9.342;2023-04-06T16:11:14;6.07;;;3.58;;
21743;SDS011;11034;48.556;9.342;2023-04-06T16:13:42;6.90;;;3.95;;
21743;SDS011;11034;48.556;9.342;2023-04-06T16:16:20;6.90;;;4.15;;
21743;SDS011;11034;48.556;9.342;2023-04-06T16:18:49;6.63;;;3.83;;
21743;SDS011;11034;48.556;9.342;2023-04-06T16:21:18;6.30;;;4.18;;
21743;SDS011;11034;48.556;9.342;2023-04-06T16:23:46;8.02;;;4.40;;
21743;SDS011;11034;48.556;9.342;2023-04-06T16:26:14;7.45;;;3.88;;
21743;SDS011;11034;48.556;9.342;2023-04-06T16:28:44;5.45;;;3.90;;
21743;SDS011;11034;48.556;9.342;2023-04-06T16:31:16;5.72;;;3.58;;
21743;SDS011;11034;48.556;9.342;2023-04-06T16:33:46;8.48;;;4.50;;
21743;SDS011;11034;48.556;9.342;2023-04-06T16:36:21;5.53;;;3.85;;
21743;SDS011;11034;48.556;9.342;2023-04-06T16:38:50;6.85;;;5.10;;
21743;SDS011;11034;48.556;9.342;2023-04-06T16:41:18;7.72;;;5.00;;
21743;SDS011;11034;48.556;9.342;2023-04-06T16:43:47;7.07;;;5.18;;
21743;SDS011;11034;48.556;9.342;2023-04-06T16:46:15;10.52;;;4.55;;
21743;SDS011;11034;48.556;9.342;2023-04-06T16:48:43;6.13;;;3.95;;
21743;SDS011;11034;48.556;9.342;2023-04-06T16:51:11;6.35;;;4.35;;
21743;SDS011;11034;48.556;9.342;2023-04-06T16:53:41;8.05;;;4.88;;
21743;SDS011;11034;48.556;9.342;2023-04-06T16:56:09;8.85;;;4.93;;
21743;SDS011;11034;48.556;9.342;2023-04-06T16:58:37;9.75;;;4.35;;
21743;SDS011;11034;48.556;9.342;2023-04-06T17:01:05;6.10;;;4.25;;
21743;SDS011;11034;48.556;9.342;2023-04-06T17:03:33;8.00;;;5.03;;
21743;SDS011;11034;48.556;9.342;2023-04-06T17:06:01;7.95;;;4.43;;
21743;SDS011;11034;48.556;9.342;2023-04-06T17:08:29;5.93;;;4.00;;
21743;SDS011;11034;48.556;9.342;2023-04-06T17:10:59;6.80;;;4.38;;
21743;SDS011;11034;48.556;9.342;2023-04-06T17:13:30;6.90;;;4.28;;
21743;SDS011;11034;48.556;9.342;2023-04-06T17:15:58;6.60;;;4.60;;
21743;SDS011;11034;48.556;9.342;2023-04-06T17:18:26;5.88;;;4.47;;
21743;SDS011;11034;48.556;9.342;2023-04-06T17:20:56;7.95;;;4.40;;
21743;SDS011;11034;48.556;9.342;2023-04-06T17:23:24;8.30;;;4.28;;
21743;SDS011;11034;48.556;9.342;2023-04-06T17:25:52;6.93;;;4.45;;
21743;SDS011;11034;48.556;9.342;2023-04-06T17:28:24;7.25;;;4.10;;
21743;SDS011;11034;48.556;9.342;2023-04-06T17:30:52;10.40;;;4.65;;
21743;SDS011;11034;48.556;9.342;2023-04-06T17:33:21;6.80;;;4.20;;
21743;SDS011;11034;48.556;9.342;2023-04-06T17:35:49;5.35;;;3.97;;
21743;SDS011;11034;48.556;9.342;2023-04-06T17:38:17;9.20;;;4.32;;
21743;SDS011;11034;48.556;9.342;2023-04-06T17:40:46;6.45;;;4.45;;
21743;SDS011;11034;48.556;9.342;2023-04-06T17:43:14;6.13;;;4.07;;
21743;SDS011;11034;48.556;9.342;2023-04-06T17:45:46;7.15;;;4.38;;
21743;SDS011;11034;48.556;9.342;2023-04-06T17:48:16;7.15;;;4.07;;
21743;SDS011;11034;48.556;9.342;2023-04-06T17:50:44;7.25;;;4.20;;
21743;SDS011;11034;48.556;9.342;2023-04-06T17:53:12;7.32;;;4.38;;
21743;SDS011;11034;48.556;9.342;2023-04-06T17:55:42;9.40;;;5.13;;
21743;SDS011;11034;48.556;9.342;2023-04-06T17:58:10;11.45;;;6.45;;
21743;SDS011;11034;48.556;9.342;2023-04-06T18:00:38;13.10;;;7.65;;
21743;SDS011;11034;48.556;9.342;2023-04-06T18:03:07;13.18;;;7.63;;
21743;SDS011;11034;48.556;9.342;2023-04-06T18:05:35;10.85;;;7.22;;
21743;SDS011;11034;48.556;9.342;2023-04-06T18:08:04;12.15;;;7.00;;
21743;SDS011;11034;48.556;9.342;2023-04-06T18:10:35;11.23;;;7.07;;
21743;SDS011;11034;48.556;9.342;2023-04-06T18:13:04;13.77;;;7.80;;
21743;SDS011;11034;48.556;9.342;2023-04-06T18:15:33;13.65;;;8.18;;
21743;SDS011;11034;48.556;9.342;2023-04-06T18:18:01;15.63;;;8.45;;
21743;SDS011;11034;48.556;9.342;2023-04-06T18:20:32;10.88;;;7.00;;
21743;SDS011;11034;48.556;9.342;2023-04-06T18:23:00;13.82;;;7.88;;
21743;SDS011;11034;48.556;9.342;2023-04-06T18:25:28;13.02;;;7.53;;
21743;SDS011;11034;48.556;9.342;2023-04-06T18:27:56;14.13;;;8.75;;
21743;SDS011;11034;48.556;9.342;2023-04-06T18:30:24;17.63;;;10.02;;
21743;SDS011;11034;48.556;9.342;2023-04-06T18:32:52;17.42;;;9.75;;
21743;SDS011;11034;48.556;9.342;2023-04-06T18:35:20;18.95;;;11.00;;
21743;SDS011;11034;48.556;9.342;2023-04-06T18:37:50;17.92;;;10.52;;
21743;SDS011;11034;48.556;9.342;2023-04-06T18:40:30;16.90;;;9.68;;
21743;SDS011;11034;48.556;9.342;2023-04-06T18:43:01;20.05;;;10.80;;
21743;SDS011;11034;48.556;9.342;2023-04-06T18:45:30;42.70;;;22.83;;
21743;SDS011;11034;48.556;9.342;2023-04-06T18:47:58;35.95;;;21.83;;
21743;SDS011;11034;48.556;9.342;2023-04-06T18:50:26;21.77;;;13.73;;
21743;SDS011;11034;48.556;9.342;2023-04-06T18:52:56;21.83;;;14.57;;
21743;SDS011;11034;48.556;9.342;2023-04-06T18:55:25;23.23;;;15.48;;
21743;SDS011;11034;48.556;9.342;2023-04-06T18:57:53;19.30;;;12.27;;
21743;SDS011;11034;48.556;9.342;2023-04-06T19:00:21;18.58;;;12.02;;
21743;SDS011;11034;48.556;9.342;2023-04-06T19:02:49;22.70;;;15.05;;
21743;SDS011;11034;48.556;9.342;2023-04-06T19:05:17;24.80;;;15.15;;
21743;SDS011;11034;48.556;9.342;2023-04-06T19:07:47;19.80;;;14.35;;
21743;SDS011;11034;48.556;9.342;2023-04-06T19:10:19;22.90;;;14.13;;
21743;SDS011;11034;48.556;9.342;2023-04-06T19:12:47;17.92;;;11.85;;
21743;SDS011;11034;48.556;9.342;2023-04-06T19:15:15;22.35;;;14.65;;
21743;SDS011;11034;48.556;9.342;2023-04-06T19:17:43;18.95;;;12.32;;
21743;SDS011;11034;48.556;9.342;2023-04-06T19:20:13;13.35;;;8.43;;
21743;SDS011;11034;48.556;9.342;2023-04-06T19:22:41;11.77;;;6.70;;
21743;SDS011;11034;48.556;9.342;2023-04-06T19:25:11;10.18;;;5.20;;
21743;SDS011;11034;48.556;9.342;2023-04-06T19:27:41;6.13;;;4.55;;
21743;SDS011;11034;48.556;9.342;2023-04-06T19:30:10;8.20;;;4.20;;
21743;SDS011;11034;48.556;9.342;2023-04-06T19:32:38;10.23;;;4.50;;
21743;SDS011;11034;48.556;9.342;2023-04-06T19:35:07;7.18;;;4.13;;
21743;SDS011;11034;48.556;9.342;2023-04-06T19:37:35;6.15;;;3.60;;
21743;SDS011;11034;48.556;9.342;2023-04-06T19:40:04;11.07;;;5.22;;
21743;SDS011;11034;48.556;9.342;2023-04-06T19:42:36;31.20;;;19.48;;
21743;SDS011;11034;48.556;9.342;2023-04-06T19:45:06;30.23;;;17.05;;
21743;SDS011;11034;48.556;9.342;2023-04-06T19:47:34;34.17;;;20.30;;
21743;SDS011;11034;48.556;9.342;2023-04-06T19:50:03;45.35;;;25.52;;
21743;SDS011;11034;48.556;9.342;2023-04-06T19:52:32;31.42;;;18.42;;
21743;SDS011;11034;48.556;9.342;2023-04-06T19:55:00;21.92;;;13.90;;
21743;SDS011;11034;48.556;9.342;2023-04-06T19:57:29;26.00;;;18.13;;
21743;SDS011;11034;48.556;9.342;2023-04-06T19:59:57;10.25;;;7.75;;
